Time;durP1;ratioP1;P1;durP2;ratioP2;P2;SDS_P1;SDS_P2;PMS_P1;PMS_P2;Temp;Humidity;BMP_temperature;BMP_pressure;BME280_temperature;BME280_humidity;BME280_pressure;Samples;Min_cycle;Max_cycle;Signal;HPM_P1;HPM_P2
2023/07/24 00:00:20;;;;;;;5.05;3.17;;;;;;;;;;5033505;28;20033;-61
2023/07/24 00:02:45;;;;;;;5.10;3.00;;;;;;;;;;5046310;28;20029;-60
2023/07/24 00:05:11;;;;;;;4.75;3.25;;;;;;;;;;5052527;28;20029;-60
2023/07/24 00:07:36;;;;;;;6.10;3.30;;;;;;;;;;5038314;28;20517;-62
2023/07/24 00:10:03;;;;;;;5.93;3.17;;;;;;;;;;5041165;28;20025;-61
2023/07/24 00:12:28;;;;;;;5.38;2.97;;;;;;;;;;5053676;28;20044;-60
2023/07/24 00:14:54;;;;;;;6.38;3.30;;;;;;;;;;5048915;28;20037;-62
2023/07/24 00:17:19;;;;;;;5.82;3.47;;;;;;;;;;5052398;28;20474;-60
2023/07/24 00:19:44;;;;;;;5.93;3.50;;;;;;;;;;5055426;28;20112;-61
2023/07/24 00:22:10;;;;;;;6.07;3.45;;;;;;;;;;5057427;28;20033;-62
2023/07/24 00:24:35;;;;;;;7.10;3.33;;;;;;;;;;5050317;28;20124;-60
2023/07/24 00:27:01;;;;;;;5.32;3.28;;;;;;;;;;5043756;28;20090;-60
2023/07/24 00:29:27;;;;;;;6.85;3.38;;;;;;;;;;5054420;28;20025;-59
2023/07/24 00:31:52;;;;;;;11.15;3.70;;;;;;;;;;5038544;28;20418;-62
2023/07/24 00:34:17;;;;;;;5.20;3.25;;;;;;;;;;5042002;28;20029;-61
2023/07/24 00:36:43;;;;;;;6.93;3.47;;;;;;;;;;5052125;28;20069;-61
2023/07/24 00:39:08;;;;;;;5.97;3.50;;;;;;;;;;5053316;28;20029;-61
2023/07/24 00:41:33;;;;;;;7.75;3.60;;;;;;;;;;5052081;28;20470;-62
2023/07/24 00:43:59;;;;;;;6.72;3.63;;;;;;;;;;5059364;28;20080;-62
2023/07/24 00:46:24;;;;;;;7.80;3.80;;;;;;;;;;5052536;28;20424;-61
2023/07/24 00:48:51;;;;;;;6.10;3.65;;;;;;;;;;5049135;28;20082;-61
2023/07/24 00:51:17;;;;;;;7.30;3.50;;;;;;;;;;5039464;28;20662;-61
2023/07/24 00:53:42;;;;;;;6.50;3.30;;;;;;;;;;5037404;28;20466;-61
2023/07/24 00:56:09;;;;;;;7.22;3.78;;;;;;;;;;5046273;28;20104;-61
2023/07/24 00:58:37;;;;;;;7.47;3.95;;;;;;;;;;5033122;28;20061;-61
2023/07/24 01:01:05;;;;;;;6.47;3.85;;;;;;;;;;5040673;28;20386;-61
2023/07/24 01:03:35;;;;;;;6.78;3.92;;;;;;;;;;5034723;28;20067;-60
2023/07/24 01:06:03;;;;;;;7.32;3.63;;;;;;;;;;5035299;28;20028;-61
2023/07/24 01:08:29;;;;;;;6.20;3.65;;;;;;;;;;5043450;28;20075;-60
2023/07/24 01:10:59;;;;;;;8.88;4.38;;;;;;;;;;5046131;28;20025;-60
2023/07/24 01:13:28;;;;;;;6.95;3.42;;;;;;;;;;5032934;28;20075;-61
2023/07/24 01:16:09;;;;;;;10.05;4.10;;;;;;;;;;5036386;28;20037;-61
2023/07/24 01:18:36;;;;;;;7.32;3.88;;;;;;;;;;5052645;28;20112;-59
2023/07/24 01:21:05;;;;;;;5.75;3.50;;;;;;;;;;5051657;28;20029;-61
2023/07/24 01:23:50;;;;;;;5.90;3.58;;;;;;;;;;5054227;28;20040;-60
2023/07/24 01:26:16;;;;;;;5.70;3.33;;;;;;;;;;5038608;28;20029;-60
2023/07/24 01:28:42;;;;;;;6.25;3.40;;;;;;;;;;5048919;28;20071;-61
2023/07/24 01:31:07;;;;;;;6.88;3.78;;;;;;;;;;5051452;28;20465;-61
2023/07/24 01:33:35;;;;;;;6.05;3.70;;;;;;;;;;5057038;28;20048;-60
2023/07/24 01:36:02;;;;;;;6.85;3.78;;;;;;;;;;5054020;28;20481;-61
2023/07/24 01:38:30;;;;;;;7.40;3.60;;;;;;;;;;5055159;28;20386;-62
2023/07/24 01:40:57;;;;;;;8.43;3.63;;;;;;;;;;5051099;28;20081;-61
2023/07/24 01:43:23;;;;;;;7.20;4.20;;;;;;;;;;5052020;28;20217;-61
2023/07/24 01:45:48;;;;;;;7.40;3.60;;;;;;;;;;5051036;28;20484;-61
2023/07/24 01:48:13;;;;;;;6.75;3.97;;;;;;;;;;5052148;28;20055;-61
2023/07/24 01:50:39;;;;;;;9.38;4.35;;;;;;;;;;5052331;28;20033;-61
2023/07/24 01:53:04;;;;;;;6.78;4.07;;;;;;;;;;5050738;28;20025;-61
2023/07/24 01:55:29;;;;;;;9.82;3.90;;;;;;;;;;5049606;28;20032;-61
2023/07/24 01:57:55;;;;;;;5.60;3.60;;;;;;;;;;5035907;28;20110;-61
2023/07/24 02:00:20;;;;;;;7.15;3.50;;;;;;;;;;5051796;28;20040;-60
2023/07/24 02:02:48;;;;;;;8.45;4.07;;;;;;;;;;5052170;28;20123;-61
2023/07/24 02:05:14;;;;;;;8.90;4.10;;;;;;;;;;5050238;28;20095;-61
2023/07/24 02:07:39;;;;;;;6.05;4.05;;;;;;;;;;5048192;28;20028;-61
2023/07/24 02:10:05;;;;;;;8.75;4.40;;;;;;;;;;5048308;28;20044;-61
2023/07/24 02:12:30;;;;;;;7.40;4.47;;;;;;;;;;5047992;28;20109;-61
2023/07/24 02:14:57;;;;;;;7.60;4.20;;;;;;;;;;5050468;28;20056;-60
2023/07/24 02:17:23;;;;;;;6.80;4.10;;;;;;;;;;5041168;28;20035;-62
2023/07/24 02:19:48;;;;;;;7.93;4.05;;;;;;;;;;5053156;28;20039;-61
2023/07/24 02:22:15;;;;;;;6.82;4.07;;;;;;;;;;5038404;28;20033;-61
2023/07/24 02:24:40;;;;;;;9.30;4.00;;;;;;;;;;5051959;28;20029;-60
2023/07/24 02:27:06;;;;;;;7.55;4.65;;;;;;;;;;5047794;28;20044;-61
2023/07/24 02:29:31;;;;;;;6.38;4.10;;;;;;;;;;5051261;28;20350;-60
2023/07/24 02:31:57;;;;;;;10.75;4.28;;;;;;;;;;5052208;28;20540;-60
2023/07/24 02:34:25;;;;;;;6.75;4.20;;;;;;;;;;5057421;28;20036;-60
2023/07/24 02:36:52;;;;;;;9.70;4.60;;;;;;;;;;5053875;28;20389;-60
2023/07/24 02:39:18;;;;;;;7.68;4.20;;;;;;;;;;5051106;28;20028;-60
2023/07/24 02:41:43;;;;;;;9.70;4.40;;;;;;;;;;5036660;28;20033;-59
2023/07/24 02:44:08;;;;;;;8.27;4.10;;;;;;;;;;5046862;28;20049;-60
2023/07/24 02:46:34;;;;;;;7.40;4.05;;;;;;;;;;5051825;28;20037;-59
2023/07/24 02:48:59;;;;;;;6.43;3.92;;;;;;;;;;5049232;28;20068;-59
2023/07/24 02:51:24;;;;;;;7.53;4.10;;;;;;;;;;5034531;28;20124;-60
2023/07/24 02:53:50;;;;;;;5.72;3.90;;;;;;;;;;5038704;28;20496;-59
2023/07/24 02:56:15;;;;;;;7.07;3.97;;;;;;;;;;5045360;28;20386;-59
2023/07/24 02:58:41;;;;;;;8.20;3.95;;;;;;;;;;5045916;28;20025;-60
2023/07/24 03:01:07;;;;;;;6.30;3.88;;;;;;;;;;5047703;28;20470;-60
2023/07/24 03:03:33;;;;;;;7.70;4.22;;;;;;;;;;5041588;28;20103;-60
2023/07/24 03:05:59;;;;;;;7.72;4.00;;;;;;;;;;5048577;28;20052;-59
2023/07/24 03:08:25;;;;;;;6.13;3.75;;;;;;;;;;5049867;28;20130;-59
2023/07/24 03:10:50;;;;;;;7.88;4.10;;;;;;;;;;5039949;28;20500;-59
2023/07/24 03:13:15;;;;;;;6.43;4.03;;;;;;;;;;5058228;28;20052;-60
2023/07/24 03:15:41;;;;;;;7.55;4.00;;;;;;;;;;5047206;28;20108;-59
2023/07/24 03:18:06;;;;;;;5.97;4.07;;;;;;;;;;5031927;28;20040;-60
2023/07/24 03:20:31;;;;;;;7.03;4.00;;;;;;;;;;5048359;28;20358;-60
2023/07/24 03:22:57;;;;;;;8.52;4.25;;;;;;;;;;5050228;28;20104;-59
2023/07/24 03:25:22;;;;;;;9.18;4.22;;;;;;;;;;5049722;28;20029;-60
2023/07/24 03:27:48;;;;;;;7.18;4.38;;;;;;;;;;5050300;28;20039;-60
2023/07/24 03:30:13;;;;;;;9.85;4.38;;;;;;;;;;5037970;28;20182;-61
2023/07/24 03:32:38;;;;;;;10.07;4.50;;;;;;;;;;5031141;28;20063;-61
2023/07/24 03:35:05;;;;;;;9.38;4.45;;;;;;;;;;5042047;28;20039;-63
2023/07/24 03:37:31;;;;;;;10.52;4.45;;;;;;;;;;5045916;28;20386;-62
2023/07/24 03:39:56;;;;;;;9.40;4.70;;;;;;;;;;5053851;28;20033;-61
2023/07/24 03:42:30;;;;;;;10.82;4.45;;;;;;;;;;5044502;28;20505;-62
2023/07/24 03:44:56;;;;;;;9.40;4.47;;;;;;;;;;5038987;28;20396;-61
2023/07/24 03:47:22;;;;;;;7.70;4.82;;;;;;;;;;5050060;28;20033;-61
2023/07/24 03:49:48;;;;;;;11.75;4.82;;;;;;;;;;5043220;28;20037;-60
2023/07/24 03:52:13;;;;;;;11.68;5.07;;;;;;;;;;5050174;28;20116;-60
2023/07/24 03:54:38;;;;;;;12.23;5.05;;;;;;;;;;5052237;28;20049;-60
2023/07/24 03:57:04;;;;;;;13.30;5.00;;;;;;;;;;5049353;28;20384;-59
2023/07/24 03:59:30;;;;;;;14.25;5.03;;;;;;;;;;5053638;28;20049;-59
2023/07/24 04:01:55;;;;;;;10.18;5.40;;;;;;;;;;5034036;28;20112;-59
2023/07/24 04:04:21;;;;;;;11.43;6.10;;;;;;;;;;5049565;28;20025;-60
2023/07/24 04:06:47;;;;;;;12.43;6.03;;;;;;;;;;5051595;28;20033;-60
2023/07/24 04:09:15;;;;;;;11.65;5.50;;;;;;;;;;5049947;28;20051;-60
2023/07/24 04:11:42;;;;;;;13.93;6.10;;;;;;;;;;5047630;28;20081;-59
2023/07/24 04:14:07;;;;;;;14.93;6.00;;;;;;;;;;5046799;28;20045;-60
2023/07/24 04:16:33;;;;;;;12.45;5.93;;;;;;;;;;5038265;28;20032;-60
2023/07/24 04:18:58;;;;;;;18.75;6.72;;;;;;;;;;5051961;28;20098;-60
2023/07/24 04:21:24;;;;;;;12.75;6.35;;;;;;;;;;5044452;28;20033;-60
2023/07/24 04:23:49;;;;;;;13.73;5.95;;;;;;;;;;5051549;28;20075;-59
2023/07/24 04:26:14;;;;;;;21.85;6.28;;;;;;;;;;5042159;28;20056;-59
2023/07/24 04:28:40;;;;;;;15.00;6.50;;;;;;;;;;5048371;28;20389;-60
2023/07/24 04:31:05;;;;;;;17.38;6.60;;;;;;;;;;5048311;28;20055;-59
2023/07/24 04:33:30;;;;;;;16.00;6.63;;;;;;;;;;5040027;28;20641;-59
2023/07/24 04:35:56;;;;;;;16.55;7.18;;;;;;;;;;5049668;28;20036;-59
2023/07/24 04:38:22;;;;;;;15.48;6.75;;;;;;;;;;5048700;28;20517;-59
2023/07/24 04:40:47;;;;;;;14.88;6.53;;;;;;;;;;5048037;28;20116;-60
2023/07/24 04:43:13;;;;;;;13.20;6.15;;;;;;;;;;5049688;28;20458;-60
2023/07/24 04:45:39;;;;;;;11.77;6.47;;;;;;;;;;5048366;28;20388;-59
2023/07/24 04:48:04;;;;;;;15.80;6.38;;;;;;;;;;5052587;28;20033;-59
2023/07/24 04:50:30;;;;;;;14.10;6.70;;;;;;;;;;5037649;28;20073;-60
2023/07/24 04:52:55;;;;;;;13.55;6.30;;;;;;;;;;5049621;28;20043;-59
2023/07/24 04:55:22;;;;;;;12.77;5.93;;;;;;;;;;5069276;28;20037;-60
2023/07/24 04:57:47;;;;;;;11.85;6.57;;;;;;;;;;5042253;28;20066;-61
2023/07/24 05:00:13;;;;;;;11.02;5.72;;;;;;;;;;5051810;28;20041;-60
2023/07/24 05:02:42;;;;;;;10.25;5.03;;;;;;;;;;5061649;28;20040;-60
2023/07/24 05:05:11;;;;;;;9.10;4.30;;;;;;;;;;5050966;28;20025;-59
2023/07/24 05:07:36;;;;;;;9.75;4.95;;;;;;;;;;5041346;28;20041;-59
2023/07/24 05:10:01;;;;;;;12.45;5.25;;;;;;;;;;5034696;28;20034;-60
2023/07/24 05:12:27;;;;;;;17.48;5.82;;;;;;;;;;5046248;28;20450;-61
2023/07/24 05:14:52;;;;;;;11.85;5.32;;;;;;;;;;5055036;28;20025;-62
2023/07/24 05:17:18;;;;;;;9.98;5.35;;;;;;;;;;5053601;28;20033;-60
2023/07/24 05:19:43;;;;;;;10.90;5.10;;;;;;;;;;5052597;28;20071;-60
2023/07/24 05:22:10;;;;;;;14.88;6.30;;;;;;;;;;5056227;28;20064;-61
2023/07/24 05:24:36;;;;;;;13.13;6.13;;;;;;;;;;5053877;28;20039;-61
2023/07/24 05:27:01;;;;;;;10.65;5.82;;;;;;;;;;5044478;28;20037;-62
2023/07/24 05:29:27;;;;;;;14.93;5.60;;;;;;;;;;5053389;28;20055;-64
2023/07/24 05:31:52;;;;;;;14.52;6.20;;;;;;;;;;5048924;28;20059;-61
2023/07/24 05:34:18;;;;;;;13.10;6.32;;;;;;;;;;5053339;28;20450;-62
2023/07/24 05:36:43;;;;;;;14.13;5.93;;;;;;;;;;5054369;28;20033;-61
2023/07/24 05:39:08;;;;;;;12.70;5.60;;;;;;;;;;5054024;28;20057;-65
2023/07/24 05:41:34;;;;;;;13.35;6.22;;;;;;;;;;5053138;28;20635;-64
2023/07/24 05:43:59;;;;;;;12.98;5.55;;;;;;;;;;5061788;28;20049;-65
2023/07/24 05:46:24;;;;;;;11.90;5.82;;;;;;;;;;5052888;28;20049;-63
2023/07/24 05:48:50;;;;;;;11.23;6.15;;;;;;;;;;5057687;28;20025;-64
2023/07/24 05:51:15;;;;;;;12.98;5.95;;;;;;;;;;5053140;28;20029;-65
2023/07/24 05:53:40;;;;;;;11.63;5.60;;;;;;;;;;5052752;28;20041;-63
2023/07/24 05:56:06;;;;;;;13.32;5.95;;;;;;;;;;5053253;28;20043;-65
2023/07/24 05:58:31;;;;;;;8.73;4.22;;;;;;;;;;5050866;28;20366;-64
2023/07/24 06:00:57;;;;;;;9.60;5.03;;;;;;;;;;5053749;28;20025;-64
2023/07/24 06:03:23;;;;;;;12.80;5.78;;;;;;;;;;5066663;28;20439;-62
2023/07/24 06:05:53;;;;;;;9.35;5.43;;;;;;;;;;5045744;28;20036;-64
2023/07/24 06:08:19;;;;;;;14.15;5.68;;;;;;;;;;5047741;28;20037;-64
2023/07/24 06:10:48;;;;;;;12.50;4.90;;;;;;;;;;5054211;28;20032;-65
2023/07/24 06:13:18;;;;;;;13.60;5.70;;;;;;;;;;5052980;28;20035;-66
2023/07/24 06:15:43;;;;;;;15.48;5.55;;;;;;;;;;5053317;28;20074;-64
2023/07/24 06:18:10;;;;;;;10.18;5.72;;;;;;;;;;5053225;28;20458;-62
2023/07/24 06:20:35;;;;;;;10.77;5.88;;;;;;;;;;5042466;28;20029;-63
2023/07/24 06:23:02;;;;;;;13.00;5.70;;;;;;;;;;5050502;28;20021;-62
2023/07/24 06:25:27;;;;;;;10.07;5.43;;;;;;;;;;5047938;28;20088;-62
2023/07/24 06:27:53;;;;;;;12.15;5.03;;;;;;;;;;5044241;28;20029;-62
2023/07/24 06:30:18;;;;;;;9.52;5.10;;;;;;;;;;5050251;28;20106;-63
2023/07/24 06:32:43;;;;;;;8.90;5.00;;;;;;;;;;5071566;28;20428;-62
2023/07/24 06:35:09;;;;;;;10.20;5.20;;;;;;;;;;5064176;28;20037;-62
2023/07/24 06:37:34;;;;;;;11.02;5.63;;;;;;;;;;5052056;28;20033;-60
2023/07/24 06:39:59;;;;;;;14.18;5.82;;;;;;;;;;5052449;28;20032;-65
2023/07/24 06:42:25;;;;;;;12.15;5.50;;;;;;;;;;5043679;28;20102;-62
2023/07/24 06:44:50;;;;;;;8.82;5.50;;;;;;;;;;5039420;28;20041;-64
2023/07/24 06:47:15;;;;;;;9.45;5.40;;;;;;;;;;5039988;28;20026;-65
2023/07/24 06:49:41;;;;;;;11.25;5.25;;;;;;;;;;5036465;28;20551;-63
2023/07/24 06:52:06;;;;;;;9.27;5.07;;;;;;;;;;5055681;28;20176;-64
2023/07/24 06:54:32;;;;;;;11.60;5.65;;;;;;;;;;5066526;28;20064;-64
2023/07/24 06:56:57;;;;;;;9.05;5.28;;;;;;;;;;5052220;28;20048;-64
2023/07/24 06:59:23;;;;;;;12.40;5.43;;;;;;;;;;5047794;28;20108;-61
2023/07/24 07:01:48;;;;;;;11.77;5.72;;;;;;;;;;5052971;28;20425;-62
2023/07/24 07:04:14;;;;;;;10.82;5.43;;;;;;;;;;5048847;28;20378;-61
2023/07/24 07:06:39;;;;;;;10.65;5.40;;;;;;;;;;5048518;28;20045;-62
2023/07/24 07:09:05;;;;;;;10.60;5.72;;;;;;;;;;5051042;28;20444;-62
2023/07/24 07:11:30;;;;;;;10.52;5.10;;;;;;;;;;5050685;28;20036;-61
2023/07/24 07:13:56;;;;;;;9.63;5.68;;;;;;;;;;5047134;28;20104;-62
2023/07/24 07:16:21;;;;;;;10.45;5.28;;;;;;;;;;5051438;28;20094;-61
2023/07/24 07:18:46;;;;;;;8.77;5.00;;;;;;;;;;5050741;28;20079;-61
2023/07/24 07:21:15;;;;;;;9.68;4.70;;;;;;;;;;5050778;28;20031;-61
2023/07/24 07:23:40;;;;;;;9.50;5.38;;;;;;;;;;5050593;28;20492;-61
2023/07/24 07:26:06;;;;;;;9.68;5.30;;;;;;;;;;5049113;28;20090;-62
2023/07/24 07:28:31;;;;;;;9.70;5.15;;;;;;;;;;5051208;28;20548;-65
2023/07/24 07:30:56;;;;;;;9.57;5.65;;;;;;;;;;5051912;28;20112;-63
2023/07/24 07:33:22;;;;;;;11.30;5.47;;;;;;;;;;5050588;28;20074;-62
2023/07/24 07:35:47;;;;;;;8.55;5.50;;;;;;;;;;5050028;28;20385;-62
2023/07/24 07:38:13;;;;;;;7.72;5.20;;;;;;;;;;5046940;28;20041;-60
2023/07/24 07:40:41;;;;;;;8.63;5.05;;;;;;;;;;5062146;28;20111;-61
2023/07/24 07:43:07;;;;;;;8.20;5.22;;;;;;;;;;5050659;28;20128;-62
2023/07/24 07:45:32;;;;;;;9.20;4.75;;;;;;;;;;5050934;28;20455;-62
2023/07/24 07:47:58;;;;;;;6.63;4.07;;;;;;;;;;5051770;28;20037;-61
2023/07/24 07:50:23;;;;;;;10.00;4.63;;;;;;;;;;5049094;28;20037;-62
2023/07/24 07:52:52;;;;;;;9.25;5.03;;;;;;;;;;5038446;28;20034;-62
2023/07/24 07:55:18;;;;;;;7.00;4.88;;;;;;;;;;5040213;28;20037;-60
2023/07/24 07:57:44;;;;;;;9.25;5.80;;;;;;;;;;5049862;28;20029;-60
2023/07/24 08:00:10;;;;;;;11.30;6.38;;;;;;;;;;5047940;28;20032;-60
2023/07/24 08:02:39;;;;;;;9.75;6.65;;;;;;;;;;5060611;28;20068;-60
2023/07/24 08:05:06;;;;;;;11.43;6.93;;;;;;;;;;5067091;28;20128;-60
2023/07/24 08:07:31;;;;;;;10.77;6.68;;;;;;;;;;5050979;28;20351;-61
2023/07/24 08:09:56;;;;;;;11.52;7.50;;;;;;;;;;5038664;28;20033;-60
2023/07/24 08:12:22;;;;;;;9.40;6.30;;;;;;;;;;5050681;28;20041;-61
2023/07/24 08:14:47;;;;;;;11.48;6.97;;;;;;;;;;5047930;28;20390;-60
2023/07/24 08:17:13;;;;;;;10.55;6.22;;;;;;;;;;5039561;28;20363;-59
2023/07/24 08:19:38;;;;;;;9.52;5.88;;;;;;;;;;5030647;28;20026;-60
2023/07/24 08:22:05;;;;;;;8.15;5.07;;;;;;;;;;5052901;28;20033;-60
2023/07/24 08:24:34;;;;;;;7.57;5.18;;;;;;;;;;5043552;28;20037;-60
2023/07/24 08:26:59;;;;;;;7.57;4.72;;;;;;;;;;5053922;28;20036;-59
2023/07/24 08:29:24;;;;;;;7.55;4.30;;;;;;;;;;5052401;28;20389;-60
2023/07/24 08:31:50;;;;;;;9.65;4.80;;;;;;;;;;5065707;28;20035;-61
2023/07/24 08:34:15;;;;;;;6.68;4.38;;;;;;;;;;5075320;28;20055;-61
2023/07/24 08:36:40;;;;;;;7.72;4.65;;;;;;;;;;5058382;28;20024;-61
2023/07/24 08:39:09;;;;;;;7.32;4.78;;;;;;;;;;5054921;28;20078;-60
2023/07/24 08:41:35;;;;;;;9.05;5.80;;;;;;;;;;5054159;28;20108;-60
2023/07/24 08:44:01;;;;;;;8.43;5.57;;;;;;;;;;5055515;28;20049;-60
2023/07/24 08:46:27;;;;;;;9.20;6.53;;;;;;;;;;5065678;28;20465;-60
2023/07/24 08:48:54;;;;;;;10.07;6.97;;;;;;;;;;5074783;28;20036;-60
2023/07/24 08:51:21;;;;;;;11.07;7.28;;;;;;;;;;5071741;28;20040;-62
2023/07/24 08:53:48;;;;;;;11.63;7.95;;;;;;;;;;5053434;28;20466;-60
2023/07/24 08:56:14;;;;;;;10.18;7.30;;;;;;;;;;5054768;28;20461;-61
2023/07/24 08:58:39;;;;;;;11.05;7.60;;;;;;;;;;5053798;28;20091;-61
2023/07/24 09:01:05;;;;;;;9.20;6.80;;;;;;;;;;5051935;28;20029;-61
2023/07/24 09:03:32;;;;;;;7.78;5.80;;;;;;;;;;5054015;28;20029;-61
2023/07/24 09:05:58;;;;;;;8.80;6.25;;;;;;;;;;5053535;28;20032;-61
2023/07/24 09:08:33;;;;;;;6.75;4.50;;;;;;;;;;5053258;28;20044;-61
2023/07/24 09:11:03;;;;;;;8.93;5.68;;;;;;;;;;5054314;28;20112;-62
2023/07/24 09:13:30;;;;;;;8.40;5.97;;;;;;;;;;5052655;28;20489;-62
2023/07/24 09:15:55;;;;;;;9.48;5.85;;;;;;;;;;5054387;28;20041;-63
2023/07/24 09:18:22;;;;;;;7.90;5.30;;;;;;;;;;5038784;28;20044;-64
2023/07/24 09:20:48;;;;;;;7.38;5.60;;;;;;;;;;5039919;28;20516;-63
2023/07/24 09:23:15;;;;;;;9.65;5.30;;;;;;;;;;5054459;28;20094;-63
2023/07/24 09:25:42;;;;;;;8.45;5.43;;;;;;;;;;5055782;28;20033;-62
2023/07/24 09:28:16;;;;;;;5.82;4.43;;;;;;;;;;5054738;28;20458;-63
2023/07/24 09:30:43;;;;;;;6.18;3.88;;;;;;;;;;5051102;28;20040;-63
2023/07/24 09:33:09;;;;;;;6.38;3.72;;;;;;;;;;5048830;28;20037;-61
2023/07/24 09:35:34;;;;;;;5.72;3.90;;;;;;;;;;5053081;28;20029;-62
2023/07/24 09:38:08;;;;;;;4.85;3.67;;;;;;;;;;5053611;28;20112;-61
2023/07/24 09:40:45;;;;;;;5.57;3.30;;;;;;;;;;5053530;28;20033;-62
2023/07/24 09:43:21;;;;;;;5.20;2.75;;;;;;;;;;5053985;28;20040;-62
2023/07/24 09:45:48;;;;;;;4.93;2.72;;;;;;;;;;5051086;28;20037;-62
2023/07/24 09:48:15;;;;;;;4.05;2.63;;;;;;;;;;5035249;28;20474;-61
2023/07/24 09:50:42;;;;;;;4.53;2.97;;;;;;;;;;5041236;28;20103;-61
2023/07/24 09:53:14;;;;;;;3.95;2.75;;;;;;;;;;5060718;28;20033;-61
2023/07/24 09:55:51;;;;;;;4.10;3.08;;;;;;;;;;5053054;28;20923;-60
2023/07/24 09:58:18;;;;;;;4.75;3.63;;;;;;;;;;5055056;28;20036;-62
2023/07/24 10:00:44;;;;;;;5.50;3.50;;;;;;;;;;5068394;28;20644;-61
2023/07/24 10:03:10;;;;;;;5.40;3.50;;;;;;;;;;5053805;28;20155;-61
2023/07/24 10:05:36;;;;;;;5.35;3.70;;;;;;;;;;5053627;28;20104;-60
2023/07/24 10:08:01;;;;;;;9.02;3.80;;;;;;;;;;5073450;28;20040;-61
2023/07/24 10:10:29;;;;;;;9.23;4.30;;;;;;;;;;5055625;28;20039;-61
2023/07/24 10:12:55;;;;;;;6.95;3.95;;;;;;;;;;5053482;28;20025;-61
2023/07/24 10:15:20;;;;;;;5.85;3.95;;;;;;;;;;5049095;28;20044;-62
2023/07/24 10:17:46;;;;;;;6.72;3.67;;;;;;;;;;5046674;28;20024;-60
2023/07/24 10:20:16;;;;;;;7.18;4.07;;;;;;;;;;5064131;28;20057;-60
2023/07/24 10:22:42;;;;;;;5.45;3.33;;;;;;;;;;5050184;28;20039;-60
2023/07/24 10:25:09;;;;;;;6.95;3.92;;;;;;;;;;5053017;28;20072;-61
2023/07/24 10:27:49;;;;;;;6.07;4.00;;;;;;;;;;5052666;28;20021;-60
2023/07/24 10:30:15;;;;;;;7.57;4.33;;;;;;;;;;5047533;28;20052;-59
2023/07/24 10:32:49;;;;;;;5.53;4.50;;;;;;;;;;5040920;28;20138;-61
2023/07/24 10:35:15;;;;;;;5.28;3.90;;;;;;;;;;5052885;28;20087;-60
2023/07/24 10:37:40;;;;;;;5.57;3.50;;;;;;;;;;5051763;28;20025;-61
2023/07/24 10:40:06;;;;;;;5.88;3.63;;;;;;;;;;5052458;28;20031;-64
2023/07/24 10:42:33;;;;;;;5.35;3.70;;;;;;;;;;5052604;28;20053;-64
2023/07/24 10:45:11;;;;;;;5.40;3.35;;;;;;;;;;5052416;28;20098;-61
2023/07/24 10:50:20;;;;;;;5.30;3.35;;;;;;;;;;5052002;28;20083;-60
2023/07/24 10:52:47;;;;;;;5.20;3.22;;;;;;;;;;5051736;28;20029;-60
2023/07/24 10:55:12;;;;;;;6.90;2.75;;;;;;;;;;5052464;28;20024;-59
2023/07/24 10:57:38;;;;;;;5.78;2.95;;;;;;;;;;5051557;28;20047;-59
2023/07/24 11:00:04;;;;;;;4.25;3.00;;;;;;;;;;5049741;28;20029;-60
2023/07/24 11:02:30;;;;;;;3.83;2.80;;;;;;;;;;5051544;28;20041;-60
2023/07/24 11:05:00;;;;;;;4.22;2.80;;;;;;;;;;5052508;28;20021;-60
2023/07/24 11:07:31;;;;;;;5.10;2.90;;;;;;;;;;5032309;28;20041;-60
2023/07/24 11:09:56;;;;;;;5.55;3.10;;;;;;;;;;5032428;28;20540;-60
2023/07/24 11:12:26;;;;;;;4.80;3.30;;;;;;;;;;5051202;28;20029;-62
2023/07/24 11:14:55;;;;;;;5.35;3.42;;;;;;;;;;5055633;28;20037;-63
2023/07/24 11:17:21;;;;;;;9.02;3.45;;;;;;;;;;5054086;28;20029;-61
2023/07/24 11:19:47;;;;;;;6.65;3.50;;;;;;;;;;5045676;28;20608;-64
2023/07/24 11:22:13;;;;;;;6.80;3.70;;;;;;;;;;5042815;28;20029;-61
2023/07/24 11:24:47;;;;;;;7.13;3.42;;;;;;;;;;5030151;28;20118;-60
2023/07/24 11:27:15;;;;;;;4.78;3.38;;;;;;;;;;5049254;28;20413;-61
2023/07/24 11:29:41;;;;;;;5.85;3.47;;;;;;;;;;5049873;28;20432;-62
2023/07/24 11:32:07;;;;;;;7.60;3.85;;;;;;;;;;5052079;28;20033;-63
2023/07/24 11:34:32;;;;;;;7.88;3.88;;;;;;;;;;5045715;28;20425;-62
2023/07/24 11:36:59;;;;;;;8.80;4.18;;;;;;;;;;5047489;28;20032;-65
2023/07/24 11:39:24;;;;;;;7.93;3.85;;;;;;;;;;5051540;28;20037;-63
2023/07/24 11:41:49;;;;;;;18.50;5.30;;;;;;;;;;5051087;28;20520;-62
2023/07/24 11:44:17;;;;;;;9.75;5.15;;;;;;;;;;5051473;28;20390;-61
2023/07/24 11:46:43;;;;;;;9.35;5.20;;;;;;;;;;5049755;28;20430;-61
2023/07/24 11:49:08;;;;;;;7.80;4.90;;;;;;;;;;5051991;28;20032;-61
2023/07/24 11:51:36;;;;;;;12.43;5.55;;;;;;;;;;5051041;28;20044;-62
2023/07/24 11:54:11;;;;;;;8.25;5.93;;;;;;;;;;5051460;28;20441;-63
2023/07/24 11:56:37;;;;;;;11.45;6.45;;;;;;;;;;5050036;28;20075;-62
2023/07/24 11:59:12;;;;;;;9.48;6.30;;;;;;;;;;5051655;28;20057;-62
2023/07/24 12:01:38;;;;;;;10.15;6.53;;;;;;;;;;5050772;28;20029;-61
2023/07/24 12:04:03;;;;;;;11.70;7.97;;;;;;;;;;5051458;28;20028;-62
2023/07/24 12:06:31;;;;;;;11.10;6.82;;;;;;;;;;5050738;28;20037;-63
2023/07/24 12:09:04;;;;;;;7.10;4.60;;;;;;;;;;5063104;28;20020;-61
2023/07/24 12:11:31;;;;;;;8.77;5.15;;;;;;;;;;5045726;28;20390;-63
2023/07/24 12:13:56;;;;;;;6.65;4.25;;;;;;;;;;5049756;28;20025;-62
2023/07/24 12:16:21;;;;;;;6.20;3.50;;;;;;;;;;5053892;28;20028;-62
2023/07/24 12:18:47;;;;;;;4.93;3.47;;;;;;;;;;5070656;28;20028;-62
2023/07/24 12:21:12;;;;;;;5.20;2.80;;;;;;;;;;5064231;28;20074;-61
2023/07/24 12:23:38;;;;;;;3.75;2.35;;;;;;;;;;5066451;28;20393;-63
2023/07/24 12:26:03;;;;;;;3.15;2.20;;;;;;;;;;5055208;28;20037;-63
2023/07/24 12:30:08;;;;;;;6.65;3.53;;;;;;;;;;5085399;27;1471747;-62
2023/07/24 12:32:34;;;;;;;4.88;2.70;;;;;;;;;;5117898;28;20559;-62
2023/07/24 12:34:59;;;;;;;3.58;2.65;;;;;;;;;;5127269;27;20102;-61
2023/07/24 12:37:24;;;;;;;4.15;2.95;;;;;;;;;;5121864;28;20543;-62
2023/07/24 12:39:50;;;;;;;4.63;2.30;;;;;;;;;;5124788;28;20030;-62
2023/07/24 12:42:16;;;;;;;5.63;2.70;;;;;;;;;;5126845;28;20031;-63
2023/07/24 12:44:42;;;;;;;5.00;2.70;;;;;;;;;;5127668;28;20042;-62
2023/07/24 12:47:08;;;;;;;5.13;2.80;;;;;;;;;;5129081;27;20027;-61
2023/07/24 12:49:33;;;;;;;4.85;2.80;;;;;;;;;;5127318;27;20039;-64
2023/07/24 12:51:59;;;;;;;3.40;2.47;;;;;;;;;;5113299;28;20479;-61
2023/07/24 12:54:27;;;;;;;6.32;2.70;;;;;;;;;;5124797;27;20975;-63
2023/07/24 12:56:53;;;;;;;3.30;2.03;;;;;;;;;;5126070;27;20031;-62
2023/07/24 12:59:18;;;;;;;3.45;1.90;;;;;;;;;;5128675;27;20043;-62
2023/07/24 13:01:44;;;;;;;4.00;1.90;;;;;;;;;;5128599;28;20054;-65
2023/07/24 13:04:10;;;;;;;2.78;2.03;;;;;;;;;;5132572;27;20046;-63
2023/07/24 13:06:35;;;;;;;3.20;1.95;;;;;;;;;;5122686;27;20523;-62
2023/07/24 13:09:01;;;;;;;3.75;2.05;;;;;;;;;;5127797;27;20049;-62
2023/07/24 13:11:29;;;;;;;2.97;2.20;;;;;;;;;;5116887;27;20044;-64
2023/07/24 13:13:55;;;;;;;6.70;1.80;;;;;;;;;;5125732;28;20447;-65
2023/07/24 13:16:21;;;;;;;3.08;2.03;;;;;;;;;;5125182;27;20073;-65
2023/07/24 13:18:46;;;;;;;3.83;1.88;;;;;;;;;;5126013;27;20050;-64
2023/07/24 13:21:13;;;;;;;3.75;2.35;;;;;;;;;;5122349;27;20042;-63
2023/07/24 13:23:39;;;;;;;2.88;1.90;;;;;;;;;;5127234;28;20080;-65
2023/07/24 13:26:04;;;;;;;3.65;2.00;;;;;;;;;;5128622;27;20036;-65
2023/07/24 13:28:30;;;;;;;3.08;2.10;;;;;;;;;;5124975;28;20130;-65
2023/07/24 13:30:55;;;;;;;4.63;2.30;;;;;;;;;;5128054;27;20379;-65
2023/07/24 13:33:22;;;;;;;4.60;2.30;;;;;;;;;;5127641;27;20441;-63
2023/07/24 13:35:48;;;;;;;4.32;2.33;;;;;;;;;;5121683;27;20467;-64
2023/07/24 13:38:14;;;;;;;4.60;2.38;;;;;;;;;;5128334;27;20067;-63
2023/07/24 13:40:39;;;;;;;4.03;2.28;;;;;;;;;;5117414;27;20483;-63
2023/07/24 13:43:05;;;;;;;3.22;2.30;;;;;;;;;;5114395;28;20032;-61
2023/07/24 13:45:30;;;;;;;3.47;2.60;;;;;;;;;;5114796;28;20145;-63
2023/07/24 13:47:59;;;;;;;4.22;2.67;;;;;;;;;;5114315;28;20054;-63
2023/07/24 13:50:24;;;;;;;4.45;2.60;;;;;;;;;;5114429;28;20043;-63
2023/07/24 13:52:50;;;;;;;3.70;2.60;;;;;;;;;;5113554;28;20115;-63
2023/07/24 13:55:15;;;;;;;5.15;2.70;;;;;;;;;;5113615;28;20024;-63
2023/07/24 13:57:41;;;;;;;5.32;2.63;;;;;;;;;;5103481;28;20044;-65
2023/07/24 14:00:07;;;;;;;4.47;2.70;;;;;;;;;;5114572;28;20036;-64
2023/07/24 14:02:32;;;;;;;5.05;2.60;;;;;;;;;;5095832;28;20036;-64
2023/07/24 14:04:58;;;;;;;5.78;3.33;;;;;;;;;;5093869;28;20122;-64
2023/07/24 14:07:23;;;;;;;6.45;3.78;;;;;;;;;;5094406;28;20040;-63
2023/07/24 14:09:48;;;;;;;5.30;3.42;;;;;;;;;;5106201;28;20023;-64
2023/07/24 14:12:14;;;;;;;4.90;3.25;;;;;;;;;;5114042;28;20433;-64
2023/07/24 14:14:39;;;;;;;4.75;3.55;;;;;;;;;;5112158;28;20027;-64
2023/07/24 14:17:05;;;;;;;4.88;3.63;;;;;;;;;;5114188;28;20027;-62
2023/07/24 14:19:30;;;;;;;5.95;4.00;;;;;;;;;;5114507;28;20027;-63
2023/07/24 14:21:56;;;;;;;7.20;4.18;;;;;;;;;;5113094;28;20039;-64
2023/07/24 14:24:21;;;;;;;9.00;4.03;;;;;;;;;;5114107;28;20081;-63
2023/07/24 14:26:47;;;;;;;6.85;3.97;;;;;;;;;;5110366;27;20117;-64
2023/07/24 14:29:12;;;;;;;5.85;3.92;;;;;;;;;;5107965;28;20051;-64
2023/07/24 14:31:37;;;;;;;6.78;3.95;;;;;;;;;;5111129;28;20103;-63
2023/07/24 14:34:04;;;;;;;4.60;3.25;;;;;;;;;;5110947;28;20108;-63
2023/07/24 14:36:33;;;;;;;4.93;3.10;;;;;;;;;;5113597;28;20056;-63